sensor_id;sensor_type;location;lat;lon;timestamp;pressure;altitude;pressure_sealevel;temperature;humidity
51849;BME280;38952;51.090;-1.832;2023-04-25T00:01:28;100288.09;;;4.65;90.11
51849;BME280;38952;51.090;-1.832;2023-04-25T00:03:54;100283.75;;;4.45;89.61
51849;BME280;38952;51.090;-1.832;2023-04-25T00:06:19;100293.03;;;4.37;90.66
51849;BME280;38952;51.090;-1.832;2023-04-25T00:08:45;100298.16;;;4.27;90.51
51849;BME280;38952;51.090;-1.832;2023-04-25T00:11:10;100288.31;;;4.14;90.34
51849;BME280;38952;51.090;-1.832;2023-04-25T00:13:36;100295.03;;;4.12;90.97
51849;BME280;38952;51.090;-1.832;2023-04-25T00:16:01;100286.38;;;4.03;91.14
51849;BME280;38952;51.090;-1.832;2023-04-25T00:18:27;100302.41;;;4.05;91.92
51849;BME280;38952;51.090;-1.832;2023-04-25T00:20:58;100297.88;;;3.98;91.66
51849;BME280;38952;51.090;-1.832;2023-04-25T00:23:23;100283.00;;;3.89;91.46
51849;BME280;38952;51.090;-1.832;2023-04-25T00:25:49;100292.78;;;3.90;92.25
51849;BME280;38952;51.090;-1.832;2023-04-25T00:28:15;100300.72;;;3.85;92.08
51849;BME280;38952;51.090;-1.832;2023-04-25T00:30:42;100302.66;;;3.78;92.16
51849;BME280;38952;51.090;-1.832;2023-04-25T00:33:08;100307.53;;;3.69;92.59
51849;BME280;38952;51.090;-1.832;2023-04-25T00:35:34;100303.44;;;3.66;93.06
51849;BME280;38952;51.090;-1.832;2023-04-25T00:38:00;100295.13;;;3.61;93.04
51849;BME280;38952;51.090;-1.832;2023-04-25T00:40:26;100303.44;;;3.66;93.30
51849;BME280;38952;51.090;-1.832;2023-04-25T00:42:52;100303.84;;;3.63;93.24
51849;BME280;38952;51.090;-1.832;2023-04-25T00:45:18;100305.59;;;3.58;93.99
51849;BME280;38952;51.090;-1.832;2023-04-25T00:47:44;100305.63;;;3.51;93.55
51849;BME280;38952;51.090;-1.832;2023-04-25T00:50:11;100327.72;;;3.48;94.32
51849;BME280;38952;51.090;-1.832;2023-04-25T00:52:38;100323.63;;;3.39;93.95
51849;BME280;38952;51.090;-1.832;2023-04-25T00:55:06;100316.16;;;3.34;94.11
51849;BME280;38952;51.090;-1.832;2023-04-25T00:57:32;100324.13;;;3.29;94.96
51849;BME280;38952;51.090;-1.832;2023-04-25T00:59:58;100329.56;;;3.22;94.63
51849;BME280;38952;51.090;-1.832;2023-04-25T01:02:25;100345.78;;;3.22;95.27
51849;BME280;38952;51.090;-1.832;2023-04-25T01:04:51;100343.75;;;3.18;95.32
51849;BME280;38952;51.090;-1.832;2023-04-25T01:07:16;100338.00;;;3.07;95.58
51849;BME280;38952;51.090;-1.832;2023-04-25T01:09:46;100352.97;;;3.10;95.70
51849;BME280;38952;51.090;-1.832;2023-04-25T01:12:11;100358.81;;;3.07;95.53
51849;BME280;38952;51.090;-1.832;2023-04-25T01:14:37;100363.81;;;3.03;95.49
51849;BME280;38952;51.090;-1.832;2023-04-25T01:17:03;100369.41;;;3.02;95.58
51849;BME280;38952;51.090;-1.832;2023-04-25T01:19:29;100359.94;;;2.92;95.46
51849;BME280;38952;51.090;-1.832;2023-04-25T01:21:55;100370.91;;;2.97;96.01
51849;BME280;38952;51.090;-1.832;2023-04-25T01:24:20;100354.34;;;2.87;95.86
51849;BME280;38952;51.090;-1.832;2023-04-25T01:26:46;100369.88;;;2.92;96.17
51849;BME280;38952;51.090;-1.832;2023-04-25T01:29:19;100373.00;;;2.95;96.24
51849;BME280;38952;51.090;-1.832;2023-04-25T01:31:45;100376.31;;;2.97;96.07
51849;BME280;38952;51.090;-1.832;2023-04-25T01:34:12;100377.53;;;3.02;96.26
51849;BME280;38952;51.090;-1.832;2023-04-25T01:36:38;100374.16;;;3.06;96.43
51849;BME280;38952;51.090;-1.832;2023-04-25T01:39:04;100369.19;;;3.10;96.24
51849;BME280;38952;51.090;-1.832;2023-04-25T01:41:29;100360.06;;;3.04;95.85
51849;BME280;38952;51.090;-1.832;2023-04-25T01:43:55;100367.53;;;3.02;95.99
51849;BME280;38952;51.090;-1.832;2023-04-25T01:46:21;100365.28;;;2.99;96.06
51849;BME280;38952;51.090;-1.832;2023-04-25T01:48:47;100361.38;;;2.95;96.15
51849;BME280;38952;51.090;-1.832;2023-04-25T01:51:33;100339.38;;;2.85;96.15
51849;BME280;38952;51.090;-1.832;2023-04-25T01:53:59;100358.69;;;2.95;96.15
51849;BME280;38952;51.090;-1.832;2023-04-25T01:56:30;100368.03;;;2.92;96.51
51849;BME280;38952;51.090;-1.832;2023-04-25T01:58:55;100363.88;;;2.90;96.41
51849;BME280;38952;51.090;-1.832;2023-04-25T02:01:21;100374.69;;;2.90;96.69
51849;BME280;38952;51.090;-1.832;2023-04-25T02:03:46;100367.69;;;2.82;96.76
51849;BME280;38952;51.090;-1.832;2023-04-25T02:06:11;100367.69;;;2.82;96.97
51849;BME280;38952;51.090;-1.832;2023-04-25T02:08:37;100358.16;;;2.73;97.27
51849;BME280;38952;51.090;-1.832;2023-04-25T02:11:02;100372.88;;;2.77;97.15
51849;BME280;38952;51.090;-1.832;2023-04-25T02:13:28;100365.44;;;2.72;97.76
51849;BME280;38952;51.090;-1.832;2023-04-25T02:15:53;100375.59;;;2.77;97.42
51849;BME280;38952;51.090;-1.832;2023-04-25T02:18:19;100377.25;;;2.78;97.17
51849;BME280;38952;51.090;-1.832;2023-04-25T02:20:46;100380.13;;;2.83;97.05
51849;BME280;38952;51.090;-1.832;2023-04-25T02:23:12;100381.78;;;2.84;96.88
51849;BME280;38952;51.090;-1.832;2023-04-25T02:25:37;100378.69;;;2.81;96.89
51849;BME280;38952;51.090;-1.832;2023-04-25T02:28:03;100390.50;;;2.86;96.86
51849;BME280;38952;51.090;-1.832;2023-04-25T02:30:28;100384.69;;;2.83;97.09
51849;BME280;38952;51.090;-1.832;2023-04-25T02:32:54;100384.47;;;2.84;96.64
51849;BME280;38952;51.090;-1.832;2023-04-25T02:35:19;100387.38;;;2.89;96.82
51849;BME280;38952;51.090;-1.832;2023-04-25T02:37:45;100393.78;;;2.95;96.59
51849;BME280;38952;51.090;-1.832;2023-04-25T02:40:10;100398.34;;;2.94;96.50
51849;BME280;38952;51.090;-1.832;2023-04-25T02:42:36;100383.00;;;2.88;96.16
51849;BME280;38952;51.090;-1.832;2023-04-25T02:45:02;100380.56;;;2.80;95.60
51849;BME280;38952;51.090;-1.832;2023-04-25T02:47:28;100395.13;;;2.72;95.70
51849;BME280;38952;51.090;-1.832;2023-04-25T02:49:53;100392.50;;;2.59;96.03
51849;BME280;38952;51.090;-1.832;2023-04-25T02:52:19;100399.38;;;2.48;95.96
51849;BME280;38952;51.090;-1.832;2023-04-25T02:54:45;100393.16;;;2.41;96.03
51849;BME280;38952;51.090;-1.832;2023-04-25T02:57:10;100394.88;;;2.29;96.15
51849;BME280;38952;51.090;-1.832;2023-04-25T02:59:35;100395.31;;;2.25;96.38
51849;BME280;38952;51.090;-1.832;2023-04-25T03:02:01;100399.25;;;2.23;96.34
51849;BME280;38952;51.090;-1.832;2023-04-25T03:04:27;100405.25;;;2.32;96.49
51849;BME280;38952;51.090;-1.832;2023-04-25T03:06:53;100409.78;;;2.38;96.54
51849;BME280;38952;51.090;-1.832;2023-04-25T03:09:19;100405.63;;;2.42;96.53
51849;BME280;38952;51.090;-1.832;2023-04-25T03:11:45;100417.66;;;2.53;95.95
51849;BME280;38952;51.090;-1.832;2023-04-25T03:14:11;100417.63;;;2.59;95.69
51849;BME280;38952;51.090;-1.832;2023-04-25T03:16:37;100414.28;;;2.64;95.34
51849;BME280;38952;51.090;-1.832;2023-04-25T03:19:03;100420.91;;;2.75;94.68
51849;BME280;38952;51.090;-1.832;2023-04-25T03:21:29;100433.16;;;2.77;95.00
51849;BME280;38952;51.090;-1.832;2023-04-25T03:23:56;100415.50;;;2.75;94.66
51849;BME280;38952;51.090;-1.832;2023-04-25T03:26:21;100412.59;;;2.70;94.03
51849;BME280;38952;51.090;-1.832;2023-04-25T03:28:47;100427.16;;;2.69;94.17
51849;BME280;38952;51.090;-1.832;2023-04-25T03:31:12;100415.94;;;2.58;94.20
51849;BME280;38952;51.090;-1.832;2023-04-25T03:33:38;100422.84;;;2.54;94.16
51849;BME280;38952;51.090;-1.832;2023-04-25T03:36:03;100434.69;;;2.53;94.14
51849;BME280;38952;51.090;-1.832;2023-04-25T03:38:29;100427.19;;;2.55;94.67
51849;BME280;38952;51.090;-1.832;2023-04-25T03:40:54;100431.53;;;2.56;94.38
51849;BME280;38952;51.090;-1.832;2023-04-25T03:43:21;100433.81;;;2.59;93.99
51849;BME280;38952;51.090;-1.832;2023-04-25T03:45:47;100438.19;;;2.60;93.90
51849;BME280;38952;51.090;-1.832;2023-04-25T03:48:12;100448.34;;;2.65;93.25
51849;BME280;38952;51.090;-1.832;2023-04-25T03:50:37;100447.53;;;2.65;93.20
51849;BME280;38952;51.090;-1.832;2023-04-25T03:53:03;100442.56;;;2.61;93.40
51849;BME280;38952;51.090;-1.832;2023-04-25T03:55:28;100450.44;;;2.63;92.88
51849;BME280;38952;51.090;-1.832;2023-04-25T03:57:54;100457.91;;;2.61;93.17
51849;BME280;38952;51.090;-1.832;2023-04-25T04:00:19;100449.19;;;2.59;93.01
51849;BME280;38952;51.090;-1.832;2023-04-25T04:02:45;100455.84;;;2.63;92.67
51849;BME280;38952;51.090;-1.832;2023-04-25T04:05:10;100452.28;;;2.62;92.23
51849;BME280;38952;51.090;-1.832;2023-04-25T04:07:35;100445.25;;;2.61;92.45
51849;BME280;38952;51.090;-1.832;2023-04-25T04:10:06;100467.25;;;2.65;91.92
51849;BME280;38952;51.090;-1.832;2023-04-25T04:12:33;100467.47;;;2.64;92.00
51849;BME280;38952;51.090;-1.832;2023-04-25T04:14:58;100467.47;;;2.64;92.21
51849;BME280;38952;51.090;-1.832;2023-04-25T04:17:24;100466.00;;;2.61;91.47
51849;BME280;38952;51.090;-1.832;2023-04-25T04:19:50;100464.97;;;2.55;91.42
51849;BME280;38952;51.090;-1.832;2023-04-25T04:22:16;100470.63;;;2.47;91.75
51849;BME280;38952;51.090;-1.832;2023-04-25T04:24:41;100466.69;;;2.43;91.58
51849;BME280;38952;51.090;-1.832;2023-04-25T04:27:09;100466.47;;;2.38;91.25
51849;BME280;38952;51.090;-1.832;2023-04-25T04:29:34;100467.53;;;2.30;91.19
51849;BME280;38952;51.090;-1.832;2023-04-25T04:32:00;100474.00;;;2.22;91.48
51849;BME280;38952;51.090;-1.832;2023-04-25T04:34:26;100468.41;;;2.11;91.35
51849;BME280;38952;51.090;-1.832;2023-04-25T04:36:52;100473.59;;;1.99;91.85
51849;BME280;38952;51.090;-1.832;2023-04-25T04:39:17;100465.47;;;1.85;92.13
51849;BME280;38952;51.090;-1.832;2023-04-25T04:41:43;100478.78;;;1.80;92.18
51849;BME280;38952;51.090;-1.832;2023-04-25T04:44:08;100471.28;;;1.69;92.25
51849;BME280;38952;51.090;-1.832;2023-04-25T04:46:34;100483.31;;;1.60;92.24
51849;BME280;38952;51.090;-1.832;2023-04-25T04:49:10;100487.03;;;1.52;92.07
51849;BME280;38952;51.090;-1.832;2023-04-25T04:51:35;100487.03;;;1.45;92.16
51849;BME280;38952;51.090;-1.832;2023-04-25T04:54:04;100487.66;;;1.41;92.20
51849;BME280;38952;51.090;-1.832;2023-04-25T04:56:30;100495.69;;;1.34;92.43
51849;BME280;38952;51.090;-1.832;2023-04-25T04:58:59;100497.13;;;1.30;92.20
51849;BME280;38952;51.090;-1.832;2023-04-25T05:01:25;100508.97;;;1.29;92.26
51849;BME280;38952;51.090;-1.832;2023-04-25T05:03:51;100513.09;;;1.25;92.72
51849;BME280;38952;51.090;-1.832;2023-04-25T05:06:18;100527.38;;;1.25;92.45
51849;BME280;38952;51.090;-1.832;2023-04-25T05:08:44;100514.31;;;1.22;92.09
51849;BME280;38952;51.090;-1.832;2023-04-25T05:11:09;100519.72;;;1.22;92.52
51849;BME280;38952;51.090;-1.832;2023-04-25T05:13:35;100524.28;;;1.21;92.33
51849;BME280;38952;51.090;-1.832;2023-04-25T05:16:00;100538.38;;;1.24;92.05
51849;BME280;38952;51.090;-1.832;2023-04-25T05:18:26;100540.44;;;1.28;92.21
51849;BME280;38952;51.090;-1.832;2023-04-25T05:20:51;100536.53;;;1.31;92.05
51849;BME280;38952;51.090;-1.832;2023-04-25T05:23:19;100544.19;;;1.34;91.97
51849;BME280;38952;51.090;-1.832;2023-04-25T05:25:44;100552.53;;;1.39;92.01
51849;BME280;38952;51.090;-1.832;2023-04-25T05:28:12;100552.53;;;1.39;91.88
51849;BME280;38952;51.090;-1.832;2023-04-25T05:30:37;100560.41;;;1.47;91.61
51849;BME280;38952;51.090;-1.832;2023-04-25T05:33:03;100558.97;;;1.51;91.73
51849;BME280;38952;51.090;-1.832;2023-04-25T05:35:28;100560.44;;;1.54;91.80
51849;BME280;38952;51.090;-1.832;2023-04-25T05:37:54;100562.53;;;1.59;91.87
51849;BME280;38952;51.090;-1.832;2023-04-25T05:40:20;100563.78;;;1.63;91.35
51849;BME280;38952;51.090;-1.832;2023-04-25T05:42:45;100551.78;;;1.65;91.64
51849;BME280;38952;51.090;-1.832;2023-04-25T05:45:11;100553.19;;;1.68;90.91
51849;BME280;38952;51.090;-1.832;2023-04-25T05:47:36;100559.22;;;1.77;91.30
51849;BME280;38952;51.090;-1.832;2023-04-25T05:50:02;100550.31;;;1.76;91.49
51849;BME280;38952;51.090;-1.832;2023-04-25T05:52:27;100555.53;;;1.84;91.23
51849;BME280;38952;51.090;-1.832;2023-04-25T05:54:53;100566.09;;;1.92;90.92
51849;BME280;38952;51.090;-1.832;2023-04-25T05:57:25;100566.34;;;1.98;90.97
51849;BME280;38952;51.090;-1.832;2023-04-25T05:59:50;100559.50;;;2.02;90.86
51849;BME280;38952;51.090;-1.832;2023-04-25T06:02:17;100554.31;;;2.07;90.81
51849;BME280;38952;51.090;-1.832;2023-04-25T06:04:42;100560.13;;;2.17;90.28
51849;BME280;38952;51.090;-1.832;2023-04-25T06:07:08;100549.13;;;2.12;89.97
51849;BME280;38952;51.090;-1.832;2023-04-25T06:09:34;100572.16;;;2.28;90.16
51849;BME280;38952;51.090;-1.832;2023-04-25T06:11:59;100563.44;;;2.26;89.96
51849;BME280;38952;51.090;-1.832;2023-04-25T06:14:25;100565.94;;;2.34;90.21
51849;BME280;38952;51.090;-1.832;2023-04-25T06:16:50;100572.16;;;2.48;89.63
51849;BME280;38952;51.090;-1.832;2023-04-25T06:19:15;100575.06;;;2.53;89.50
51849;BME280;38952;51.090;-1.832;2023-04-25T06:21:43;100575.03;;;2.67;89.67
51849;BME280;38952;51.090;-1.832;2023-04-25T06:24:08;100568.59;;;2.68;89.26
51849;BME280;38952;51.090;-1.832;2023-04-25T06:26:34;100579.38;;;2.81;88.98
51849;BME280;38952;51.090;-1.832;2023-04-25T06:28:59;100588.91;;;2.90;88.77
51849;BME280;38952;51.090;-1.832;2023-04-25T06:31:25;100594.09;;;2.99;88.58
51849;BME280;38952;51.090;-1.832;2023-04-25T06:33:50;100594.28;;;3.04;88.82
51849;BME280;38952;51.090;-1.832;2023-04-25T06:36:22;100598.22;;;3.08;88.30
51849;BME280;38952;51.090;-1.832;2023-04-25T06:38:50;100607.34;;;3.20;88.28
51849;BME280;38952;51.090;-1.832;2023-04-25T06:41:16;100606.28;;;3.28;88.16
51849;BME280;38952;51.090;-1.832;2023-04-25T06:43:46;100598.56;;;3.31;87.93
51849;BME280;38952;51.090;-1.832;2023-04-25T06:46:12;100604.53;;;3.47;87.81
51849;BME280;38952;51.090;-1.832;2023-04-25T06:48:37;100613.00;;;3.57;87.44
51849;BME280;38952;51.090;-1.832;2023-04-25T06:51:03;100610.06;;;3.65;87.11
51849;BME280;38952;51.090;-1.832;2023-04-25T06:53:29;100610.38;;;3.82;87.46
51849;BME280;38952;51.090;-1.832;2023-04-25T06:55:54;100608.44;;;3.96;87.76
51849;BME280;38952;51.090;-1.832;2023-04-25T06:58:20;100613.50;;;4.18;88.04
51849;BME280;38952;51.090;-1.832;2023-04-25T07:00:45;100610.25;;;4.34;86.95
51849;BME280;38952;51.090;-1.832;2023-04-25T07:03:10;100611.41;;;4.45;85.91
51849;BME280;38952;51.090;-1.832;2023-04-25T07:05:38;100614.41;;;4.62;85.30
51849;BME280;38952;51.090;-1.832;2023-04-25T07:08:06;100613.50;;;4.68;85.33
51849;BME280;38952;51.090;-1.832;2023-04-25T07:10:31;100605.56;;;4.74;84.68
51849;BME280;38952;51.090;-1.832;2023-04-25T07:12:56;100610.47;;;4.83;83.60
51849;BME280;38952;51.090;-1.832;2023-04-25T07:15:22;100621.41;;;4.95;84.05
51849;BME280;38952;51.090;-1.832;2023-04-25T07:17:47;100621.94;;;5.04;83.45
51849;BME280;38952;51.090;-1.832;2023-04-25T07:20:13;100627.66;;;5.14;82.42
51849;BME280;38952;51.090;-1.832;2023-04-25T07:22:38;100634.84;;;5.27;82.85
51849;BME280;38952;51.090;-1.832;2023-04-25T07:25:04;100631.97;;;5.40;82.62
51849;BME280;38952;51.090;-1.832;2023-04-25T07:27:30;100629.16;;;5.47;82.21
51849;BME280;38952;51.090;-1.832;2023-04-25T07:29:56;100630.81;;;5.67;82.30
51849;BME280;38952;51.090;-1.832;2023-04-25T07:32:25;100626.63;;;5.83;81.56
51849;BME280;38952;51.090;-1.832;2023-04-25T07:34:51;100631.69;;;5.98;81.28
51849;BME280;38952;51.090;-1.832;2023-04-25T07:37:16;100633.69;;;6.02;80.89
51849;BME280;38952;51.090;-1.832;2023-04-25T07:39:44;100635.25;;;6.10;80.76
51849;BME280;38952;51.090;-1.832;2023-04-25T07:42:19;100611.31;;;6.19;79.64
51849;BME280;38952;51.090;-1.832;2023-04-25T07:44:45;100599.19;;;6.33;79.98
51849;BME280;38952;51.090;-1.832;2023-04-25T07:47:16;100616.94;;;6.59;79.52
51849;BME280;38952;51.090;-1.832;2023-04-25T07:49:50;100599.81;;;6.59;78.61
51849;BME280;38952;51.090;-1.832;2023-04-25T07:52:46;100597.22;;;6.64;77.12
51849;BME280;38952;51.090;-1.832;2023-04-25T07:55:11;100626.63;;;6.79;76.29
51849;BME280;38952;51.090;-1.832;2023-04-25T08:00:49;100605.97;;;6.90;75.44
51849;BME280;38952;51.090;-1.832;2023-04-25T08:03:17;100626.63;;;7.14;74.91
51849;BME280;38952;51.090;-1.832;2023-04-25T08:05:43;100621.41;;;7.25;74.71
51849;BME280;38952;51.090;-1.832;2023-04-25T08:08:08;100612.91;;;7.33;74.45
51849;BME280;38952;51.090;-1.832;2023-04-25T08:10:34;100634.13;;;7.60;73.96
51849;BME280;38952;51.090;-1.832;2023-04-25T08:13:02;100636.69;;;7.66;73.18
51849;BME280;38952;51.090;-1.832;2023-04-25T08:15:48;100650.13;;;7.85;73.16
51849;BME280;38952;51.090;-1.832;2023-04-25T08:18:17;100644.56;;;7.92;72.28
51849;BME280;38952;51.090;-1.832;2023-04-25T08:20:44;100631.63;;;7.99;72.90
51849;BME280;38952;51.090;-1.832;2023-04-25T08:23:10;100622.41;;;8.17;72.39
51849;BME280;38952;51.090;-1.832;2023-04-25T08:25:41;100625.63;;;8.31;71.05
51849;BME280;38952;51.090;-1.832;2023-04-25T08:28:17;100620.72;;;8.45;70.27
51849;BME280;38952;51.090;-1.832;2023-04-25T08:30:54;100647.97;;;8.79;69.97
51849;BME280;38952;51.090;-1.832;2023-04-25T08:33:22;100612.97;;;8.70;68.79
51849;BME280;38952;51.090;-1.832;2023-04-25T08:35:50;100620.47;;;8.80;67.01
51849;BME280;38952;51.090;-1.832;2023-04-25T08:38:24;100613.19;;;8.86;67.16
51849;BME280;38952;51.090;-1.832;2023-04-25T08:40:54;100612.59;;;9.01;66.39
51849;BME280;38952;51.090;-1.832;2023-04-25T08:43:33;100614.88;;;9.09;65.48
51849;BME280;38952;51.090;-1.832;2023-04-25T08:46:02;100645.16;;;9.47;65.61
51849;BME280;38952;51.090;-1.832;2023-04-25T08:48:28;100631.16;;;9.43;63.09
51849;BME280;38952;51.090;-1.832;2023-04-25T08:51:01;100630.28;;;9.59;63.00
51849;BME280;38952;51.090;-1.832;2023-04-25T08:53:31;100630.44;;;9.97;62.54
51849;BME280;38952;51.090;-1.832;2023-04-25T08:56:01;100623.34;;;11.36;59.61
51849;BME280;38952;51.090;-1.832;2023-04-25T08:58:56;100646.97;;;13.84;52.64
51849;BME280;38952;51.090;-1.832;2023-04-25T09:01:25;100640.56;;;14.83;48.08
51849;BME280;38952;51.090;-1.832;2023-04-25T09:03:50;100628.00;;;14.96;47.00
51849;BME280;38952;51.090;-1.832;2023-04-25T09:06:19;100651.44;;;14.59;46.31
51849;BME280;38952;51.090;-1.832;2023-04-25T09:08:44;100638.47;;;13.81;47.67
51849;BME280;38952;51.090;-1.832;2023-04-25T09:11:09;100634.28;;;13.23;48.70
51849;BME280;38952;51.090;-1.832;2023-04-25T09:13:35;100623.88;;;13.04;49.56
51849;BME280;38952;51.090;-1.832;2023-04-25T09:16:08;100628.47;;;14.00;47.32
51849;BME280;38952;51.090;-1.832;2023-04-25T09:18:34;100635.50;;;16.64;42.91
51849;BME280;38952;51.090;-1.832;2023-04-25T09:21:22;100624.97;;;20.33;36.84
51849;BME280;38952;51.090;-1.832;2023-04-25T09:23:50;100636.63;;;23.78;31.93
51849;BME280;38952;51.090;-1.832;2023-04-25T09:26:20;100651.53;;;26.82;28.04
51849;BME280;38952;51.090;-1.832;2023-04-25T09:28:48;100637.38;;;28.55;24.55
51849;BME280;38952;51.090;-1.832;2023-04-25T09:31:22;100641.13;;;30.08;23.48
51849;BME280;38952;51.090;-1.832;2023-04-25T09:33:59;100652.78;;;31.56;20.58
51849;BME280;38952;51.090;-1.832;2023-04-25T09:36:26;100627.53;;;32.48;20.79
51849;BME280;38952;51.090;-1.832;2023-04-25T09:38:57;100634.72;;;33.68;18.51
51849;BME280;38952;51.090;-1.832;2023-04-25T09:41:31;100626.56;;;34.12;17.84
51849;BME280;38952;51.090;-1.832;2023-04-25T09:43:57;100624.81;;;35.11;15.94
51849;BME280;38952;51.090;-1.832;2023-04-25T09:46:37;100636.88;;;36.10;16.35
51849;BME280;38952;51.090;-1.832;2023-04-25T09:49:11;100638.00;;;36.73;15.34
51849;BME280;38952;51.090;-1.832;2023-04-25T09:52:17;100640.31;;;38.06;14.65
51849;BME280;38952;51.090;-1.832;2023-04-25T09:54:46;100638.41;;;38.16;14.13
51849;BME280;38952;51.090;-1.832;2023-04-25T09:57:21;100625.44;;;38.40;14.63
51849;BME280;38952;51.090;-1.832;2023-04-25T09:59:48;100627.69;;;38.75;13.06
51849;BME280;38952;51.090;-1.832;2023-04-25T10:02:17;100622.19;;;38.81;12.72
51849;BME280;38952;51.090;-1.832;2023-04-25T10:04:53;100631.47;;;38.85;12.09
51849;BME280;38952;51.090;-1.832;2023-04-25T10:07:22;100627.75;;;39.10;12.10
51849;BME280;38952;51.090;-1.832;2023-04-25T10:09:59;100644.94;;;39.93;11.92
51849;BME280;38952;51.090;-1.832;2023-04-25T10:12:29;100638.50;;;39.79;11.23
51849;BME280;38952;51.090;-1.832;2023-04-25T10:15:14;100606.72;;;39.65;11.72
51849;BME280;38952;51.090;-1.832;2023-04-25T10:17:43;100613.38;;;39.84;10.70
51849;BME280;38952;51.090;-1.832;2023-04-25T10:20:11;100631.75;;;39.73;11.20
51849;BME280;38952;51.090;-1.832;2023-04-25T10:22:58;100641.13;;;40.40;11.13
51849;BME280;38952;51.090;-1.832;2023-04-25T10:25:32;100630.00;;;41.24;10.47
51849;BME280;38952;51.090;-1.832;2023-04-25T10:27:59;100635.34;;;42.09;10.56
51849;BME280;38952;51.090;-1.832;2023-04-25T10:30:26;100638.38;;;43.33;10.51
51849;BME280;38952;51.090;-1.832;2023-04-25T10:32:59;100638.56;;;42.96;10.13
51849;BME280;38952;51.090;-1.832;2023-04-25T10:35:27;100626.84;;;42.14;9.54
51849;BME280;38952;51.090;-1.832;2023-04-25T10:38:13;100633.56;;;42.82;9.75
51849;BME280;38952;51.090;-1.832;2023-04-25T10:41:23;100643.19;;;44.30;9.73
51849;BME280;38952;51.090;-1.832;2023-04-25T10:44:17;100625.44;;;44.67;9.14
51849;BME280;38952;51.090;-1.832;2023-04-25T10:46:44;100631.16;;;45.79;8.69
51849;BME280;38952;51.090;-1.832;2023-04-25T10:49:31;100623.22;;;46.26;8.85
51849;BME280;38952;51.090;-1.832;2023-04-25T10:52:17;100631.50;;;46.13;7.16
51849;BME280;38952;51.090;-1.832;2023-04-25T10:54:46;100631.31;;;45.90;6.93
51849;BME280;38952;51.090;-1.832;2023-04-25T10:57:43;100613.41;;;45.65;7.06
51849;BME280;38952;51.090;-1.832;2023-04-25T11:00:22;100617.78;;;45.14;7.11
51849;BME280;38952;51.090;-1.832;2023-04-25T11:03:02;100609.00;;;45.70;6.45
51849;BME280;38952;51.090;-1.832;2023-04-25T11:05:45;100619.59;;;45.79;6.39
51849;BME280;38952;51.090;-1.832;2023-04-25T11:08:13;100629.13;;;46.38;7.44
51849;BME280;38952;51.090;-1.832;2023-04-25T11:10:47;100624.41;;;47.10;6.48
51849;BME280;38952;51.090;-1.832;2023-04-25T11:13:15;100629.06;;;47.01;7.09
51849;BME280;38952;51.090;-1.832;2023-04-25T11:15:54;100635.47;;;47.83;6.98
51849;BME280;38952;51.090;-1.832;2023-04-25T11:18:20;100623.41;;;48.18;5.72
51849;BME280;38952;51.090;-1.832;2023-04-25T11:20:47;100609.66;;;47.91;5.98
51849;BME280;38952;51.090;-1.832;2023-04-25T11:23:15;100622.06;;;48.25;6.23
51849;BME280;38952;51.090;-1.832;2023-04-25T11:25:40;100615.75;;;48.44;6.00
51849;BME280;38952;51.090;-1.832;2023-04-25T11:28:21;100619.97;;;48.42;5.76
51849;BME280;38952;51.090;-1.832;2023-04-25T11:31:10;100636.84;;;48.61;6.02
51849;BME280;38952;51.090;-1.832;2023-04-25T11:33:39;100602.59;;;49.41;6.10
51849;BME280;38952;51.090;-1.832;2023-04-25T11:36:19;100616.00;;;50.33;5.75
51849;BME280;38952;51.090;-1.832;2023-04-25T11:38:45;100613.44;;;50.24;4.49
51849;BME280;38952;51.090;-1.832;2023-04-25T11:41:19;100600.19;;;48.64;4.59
51849;BME280;38952;51.090;-1.832;2023-04-25T11:43:49;100608.06;;;48.80;5.58
51849;BME280;38952;51.090;-1.832;2023-04-25T11:46:16;100618.47;;;49.34;4.76
51849;BME280;38952;51.090;-1.832;2023-04-25T11:48:44;100619.00;;;49.33;5.02
51849;BME280;38952;51.090;-1.832;2023-04-25T11:51:10;100618.97;;;49.86;4.93
51849;BME280;38952;51.090;-1.832;2023-04-25T11:53:41;100606.63;;;50.16;4.85
51849;BME280;38952;51.090;-1.832;2023-04-25T11:56:11;100610.97;;;50.64;4.73
51849;BME280;38952;51.090;-1.832;2023-04-25T11:58:59;100609.34;;;51.12;4.91
51849;BME280;38952;51.090;-1.832;2023-04-25T12:01:32;100613.63;;;51.11;4.18
51849;BME280;38952;51.090;-1.832;2023-04-25T12:03:58;100614.84;;;50.97;4.17
51849;BME280;38952;51.090;-1.832;2023-04-25T12:06:40;100597.47;;;50.36;3.93
51849;BME280;38952;51.090;-1.832;2023-04-25T12:09:08;100600.47;;;49.89;4.48
51849;BME280;38952;51.090;-1.832;2023-04-25T12:11:47;100617.66;;;49.39;4.25
51849;BME280;38952;51.090;-1.832;2023-04-25T12:14:22;100622.78;;;49.69;4.23
51849;BME280;38952;51.090;-1.832;2023-04-25T12:16:51;100615.75;;;50.56;4.33
51849;BME280;38952;51.090;-1.832;2023-04-25T12:19:32;100617.03;;;51.35;3.90
51849;BME280;38952;51.090;-1.832;2023-04-25T12:22:01;100633.22;;;51.87;4.08
51849;BME280;38952;51.090;-1.832;2023-04-25T12:24:36;100630.19;;;51.41;3.85
51849;BME280;38952;51.090;-1.832;2023-04-25T12:27:13;100619.81;;;47.52;4.58
51849;BME280;38952;51.090;-1.832;2023-04-25T12:29:50;100614.44;;;43.90;6.22
51849;BME280;38952;51.090;-1.832;2023-04-25T12:32:16;100623.91;;;46.42;5.98
51849;BME280;38952;51.090;-1.832;2023-04-25T12:34:45;100628.38;;;48.74;5.17
51849;BME280;38952;51.090;-1.832;2023-04-25T12:37:11;100632.50;;;50.50;4.85
51849;BME280;38952;51.090;-1.832;2023-04-25T12:39:39;100624.63;;;46.31;4.71
51849;BME280;38952;51.090;-1.832;2023-04-25T12:42:04;100622.47;;;44.46;5.59
51849;BME280;38952;51.090;-1.832;2023-04-25T12:44:43;100590.75;;;40.21;7.10
51849;BME280;38952;51.090;-1.832;2023-04-25T12:47:25;100595.59;;;42.68;6.91
51849;BME280;38952;51.090;-1.832;2023-04-25T12:53:04;100601.34;;;49.25;5.30
51849;BME280;38952;51.090;-1.832;2023-04-25T12:55:34;100590.94;;;50.55;4.73
51849;BME280;38952;51.090;-1.832;2023-04-25T13:01:06;100590.13;;;52.31;4.08
51849;BME280;38952;51.090;-1.832;2023-04-25T13:04:02;100590.03;;;53.65;4.03
51849;BME280;38952;51.090;-1.832;2023-04-25T13:06:47;100589.28;;;54.49;3.99